Time;durP1;ratioP1;P1;durP2;ratioP2;P2;SDS_P1;SDS_P2;PMS_P1;PMS_P2;Temp;Humidity;BMP_temperature;BMP_pressure;BME280_temperature;BME280_humidity;BME280_pressure;Samples;Min_cycle;Max_cycle;Signal;HPM_P1;HPM_P2
2024/01/13 00:01:52;;;;;;;5.30;4.80;;;16.90;54.80;17.70;102018.00;;;;5062067;28;20174;-47
2024/01/13 00:04:18;;;;;;;4.97;4.57;;;16.90;54.80;17.70;102012.00;;;;5069888;28;20208;-47
2024/01/13 00:06:43;;;;;;;4.67;4.27;;;16.90;54.70;17.70;102010.00;;;;5069849;28;20173;-47
2024/01/13 00:09:10;;;;;;;5.03;4.53;;;16.80;54.60;17.70;102009.00;;;;5069550;28;20669;-47
2024/01/13 00:11:36;;;;;;;5.07;4.67;;;16.90;54.70;17.70;102000.00;;;;5045538;28;20577;-49
2024/01/13 00:14:01;;;;;;;5.40;4.90;;;16.90;54.60;17.70;102011.00;;;;5069560;28;20195;-48
2024/01/13 00:16:27;;;;;;;5.47;4.97;;;16.90;54.60;17.70;102010.00;;;;5069512;28;20172;-47
2024/01/13 00:18:53;;;;;;;5.00;4.60;;;16.90;54.60;17.70;101995.00;;;;5069346;28;20180;-47
2024/01/13 00:21:18;;;;;;;5.00;4.60;;;16.90;54.50;17.70;101986.00;;;;5047967;28;20234;-47
2024/01/13 00:23:44;;;;;;;4.93;4.53;;;16.90;54.50;17.80;101992.00;;;;5069258;28;20191;-47
2024/01/13 00:26:10;;;;;;;5.60;5.03;;;16.90;54.60;17.80;101988.00;;;;5069357;28;20571;-46
2024/01/13 00:28:36;;;;;;;5.27;4.77;;;16.90;54.60;17.70;101989.00;;;;5069519;28;20554;-47
2024/01/13 00:31:02;;;;;;;4.93;4.50;;;16.90;54.60;17.70;101985.00;;;;5068768;28;20197;-47
2024/01/13 00:33:27;;;;;;;5.37;4.87;;;16.90;54.60;17.70;101981.00;;;;5069129;28;20175;-48
2024/01/13 00:35:53;;;;;;;5.50;5.00;;;16.90;54.70;17.70;101978.00;;;;5069108;28;20197;-47
2024/01/13 00:38:19;;;;;;;5.30;4.80;;;16.90;54.60;17.80;101977.00;;;;5069067;28;20549;-46
2024/01/13 00:40:44;;;;;;;5.13;4.67;;;16.90;54.60;17.70;101979.00;;;;5068929;28;20192;-47
2024/01/13 00:43:10;;;;;;;5.43;4.93;;;16.90;54.60;17.80;101981.00;;;;5065856;28;20207;-47
2024/01/13 00:45:36;;;;;;;5.27;4.67;;;16.90;54.60;17.80;101971.00;;;;5069121;28;20204;-47
2024/01/13 00:48:02;;;;;;;5.30;4.90;;;16.90;54.60;17.80;101973.00;;;;5069077;28;20177;-48
2024/01/13 00:50:27;;;;;;;4.93;4.53;;;16.90;54.50;17.80;101968.00;;;;5040805;28;20232;-47
2024/01/13 00:52:53;;;;;;;5.20;4.80;;;16.90;54.50;17.80;101965.00;;;;5069064;28;20659;-46
2024/01/13 00:55:19;;;;;;;5.10;4.70;;;17.00;54.60;17.80;101958.00;;;;5068987;28;20709;-47
2024/01/13 00:57:45;;;;;;;5.03;4.53;;;17.00;54.50;17.80;101957.00;;;;5069087;28;20173;-46
2024/01/13 01:00:11;;;;;;;5.30;4.80;;;17.00;54.50;17.80;101945.00;;;;5068660;28;20184;-46
2024/01/13 01:02:37;;;;;;;5.03;4.53;;;16.90;54.50;17.80;101946.00;;;;5068148;28;20176;-47
2024/01/13 01:05:03;;;;;;;5.13;4.67;;;16.90;54.40;17.80;101944.00;;;;5067633;28;20193;-46
2024/01/13 01:07:29;;;;;;;4.87;4.47;;;16.90;54.50;17.80;101937.00;;;;5064972;28;20204;-48
2024/01/13 01:09:55;;;;;;;4.93;4.53;;;16.90;54.50;17.80;101940.00;;;;5067916;28;20197;-47
2024/01/13 01:12:21;;;;;;;4.90;4.50;;;16.90;54.50;17.80;101939.00;;;;5067812;28;20201;-47
2024/01/13 01:14:46;;;;;;;5.37;4.80;;;17.00;54.60;17.80;101943.00;;;;5068103;28;20213;-46
2024/01/13 01:17:13;;;;;;;5.00;4.60;;;17.00;54.50;17.80;101936.00;;;;5070485;28;20272;-47
2024/01/13 01:19:39;;;;;;;5.17;4.73;;;17.00;54.50;17.80;101927.00;;;;5068140;28;20282;-47
2024/01/13 01:22:04;;;;;;;4.90;4.50;;;16.90;54.40;17.80;101937.00;;;;5065157;28;20791;-47
2024/01/13 01:24:30;;;;;;;5.13;4.63;;;16.90;54.60;17.80;101928.00;;;;5068646;28;20577;-47
2024/01/13 01:26:56;;;;;;;4.93;4.53;;;16.90;54.60;17.80;101925.00;;;;5072617;28;20188;-46
2024/01/13 01:29:22;;;;;;;5.20;4.70;;;16.90;54.60;17.80;101934.00;;;;5069681;28;20662;-47
2024/01/13 01:31:47;;;;;;;5.20;4.80;;;17.00;54.60;17.80;101932.00;;;;5068403;28;20204;-47
2024/01/13 01:34:13;;;;;;;5.10;4.67;;;17.00;54.60;17.80;101879.00;;;;5067545;28;20193;-47
2024/01/13 01:36:39;;;;;;;5.40;4.90;;;16.90;54.60;17.80;101935.00;;;;5067746;28;20179;-47
2024/01/13 01:39:04;;;;;;;4.90;4.50;;;16.90;54.50;17.80;101933.00;;;;5067079;28;20806;-46
2024/01/13 01:41:30;;;;;;;5.00;4.50;;;16.90;54.60;17.80;101929.00;;;;5067202;28;20644;-47
2024/01/13 01:43:56;;;;;;;5.67;5.17;;;16.90;54.50;17.80;101925.00;;;;5044873;28;20539;-46
2024/01/13 01:46:22;;;;;;;5.00;4.60;;;16.90;54.50;17.80;101932.00;;;;5045070;28;20186;-46
2024/01/13 01:48:47;;;;;;;4.80;4.40;;;16.90;54.50;17.80;101935.00;;;;5046831;28;20191;-51
2024/01/13 01:51:14;;;;;;;5.27;4.77;;;16.90;54.40;17.80;101929.00;;;;5043827;28;20201;-46
2024/01/13 01:53:40;;;;;;;5.10;4.63;;;17.00;54.50;17.80;101925.00;;;;5071698;28;20258;-47
2024/01/13 01:56:11;;;;;;;5.40;4.90;;;17.00;54.60;17.80;101929.00;;;;5071465;28;20176;-47
2024/01/13 01:58:37;;;;;;;5.00;4.60;;;16.90;54.40;17.80;101912.00;;;;5040844;28;20174;-47
2024/01/13 02:01:03;;;;;;;4.87;4.47;;;17.00;54.60;17.80;101921.00;;;;5043343;28;20679;-46
2024/01/13 02:03:29;;;;;;;5.40;4.90;;;16.90;54.60;17.80;101917.00;;;;5036720;28;20181;-47
2024/01/13 02:05:55;;;;;;;5.27;4.77;;;16.90;54.50;17.80;101909.00;;;;5071037;28;20253;-47
2024/01/13 02:08:21;;;;;;;4.70;4.30;;;16.90;54.50;17.80;101914.00;;;;5070980;28;20180;-46
2024/01/13 02:10:46;;;;;;;4.83;4.43;;;17.00;54.50;17.80;101907.00;;;;5070494;28;20591;-47
2024/01/13 02:13:12;;;;;;;5.10;4.70;;;17.00;54.50;17.80;101907.00;;;;5070862;28;20263;-47
2024/01/13 02:15:38;;;;;;;5.20;4.70;;;16.90;54.40;17.80;101907.00;;;;5071043;28;20193;-47
2024/01/13 02:18:03;;;;;;;4.47;4.17;;;16.90;54.40;17.80;101907.00;;;;5067605;28;20175;-46
2024/01/13 02:20:29;;;;;;;5.00;4.60;;;16.90;54.50;17.80;101900.00;;;;5070820;28;20174;-46
2024/01/13 02:22:55;;;;;;;4.83;4.43;;;16.90;54.50;17.80;101893.00;;;;5071036;28;20188;-47
2024/01/13 02:25:21;;;;;;;4.97;4.57;;;16.90;54.50;17.80;101905.00;;;;5070553;28;20207;-46
2024/01/13 02:27:46;;;;;;;4.70;4.27;;;16.90;54.50;17.80;101900.00;;;;5071064;28;20205;-47
2024/01/13 02:30:12;;;;;;;4.83;4.43;;;16.90;54.50;17.80;101903.00;;;;5070273;28;20184;-49
2024/01/13 02:32:38;;;;;;;4.97;4.57;;;16.90;54.50;17.80;101900.00;;;;5070886;28;20648;-49
2024/01/13 02:35:04;;;;;;;4.67;4.27;;;16.90;54.50;17.80;101895.00;;;;5070697;28;20201;-48
2024/01/13 02:37:35;;;;;;;5.27;4.77;;;16.90;54.60;17.80;101883.00;;;;5065530;28;20569;-47
2024/01/13 02:40:01;;;;;;;5.10;4.60;;;16.90;54.50;17.80;101897.00;;;;5070389;28;20204;-47
2024/01/13 02:42:27;;;;;;;4.77;4.37;;;17.00;54.50;17.80;101890.00;;;;5070342;28;20209;-46
2024/01/13 02:44:52;;;;;;;4.87;4.47;;;17.00;54.40;17.80;101877.00;;;;5066802;28;20677;-46
2024/01/13 02:47:22;;;;;;;5.20;4.70;;;17.00;54.40;17.80;101863.00;;;;5042709;28;20192;-47
2024/01/13 02:49:48;;;;;;;4.80;4.40;;;17.00;54.50;17.60;101875.00;;;;5049062;28;20208;-48
2024/01/13 02:52:14;;;;;;;4.60;4.20;;;17.00;54.60;17.80;101864.00;;;;5070441;28;20236;-47
2024/01/13 02:54:39;;;;;;;4.90;4.50;;;16.90;54.50;17.80;101878.00;;;;5070536;28;20276;-47
2024/01/13 02:57:05;;;;;;;4.90;4.50;;;16.90;54.50;17.80;101874.00;;;;5067066;28;20172;-47
2024/01/13 02:59:31;;;;;;;5.07;4.60;;;17.00;54.50;17.80;101862.00;;;;5070371;28;20178;-47
2024/01/13 03:01:57;;;;;;;5.07;4.60;;;17.00;54.40;17.80;101870.00;;;;5070086;28;20724;-47
2024/01/13 03:04:22;;;;;;;4.97;4.50;;;17.00;54.40;17.80;101861.00;;;;5069642;28;20209;-47
2024/01/13 03:06:48;;;;;;;5.00;4.60;;;16.90;54.40;17.80;101854.00;;;;5072212;28;20174;-46
2024/01/13 03:09:14;;;;;;;4.67;4.27;;;16.90;54.40;17.80;101855.00;;;;5071073;28;20699;-46
2024/01/13 03:11:39;;;;;;;5.30;4.80;;;16.90;54.40;17.80;101850.00;;;;5070732;28;20208;-46
2024/01/13 03:14:05;;;;;;;5.10;4.60;;;17.00;54.50;17.80;101847.00;;;;5070465;28;20199;-47
2024/01/13 03:16:31;;;;;;;4.80;4.40;;;16.90;54.40;17.80;101845.00;;;;5070907;28;20192;-47
2024/01/13 03:18:56;;;;;;;5.00;4.50;;;16.90;54.40;17.80;101833.00;;;;5069639;28;20184;-47
2024/01/13 03:21:22;;;;;;;5.37;4.87;;;16.90;54.40;17.80;101839.00;;;;5072064;28;20181;-47
2024/01/13 03:23:48;;;;;;;4.47;4.07;;;16.90;54.50;17.80;101852.00;;;;5069701;28;20699;-47
2024/01/13 03:26:14;;;;;;;4.93;4.53;;;17.00;54.50;17.80;101843.00;;;;5069807;28;20181;-47
2024/01/13 03:28:39;;;;;;;4.73;4.33;;;16.90;54.50;17.80;101838.00;;;;5044945;28;20274;-47
2024/01/13 03:31:05;;;;;;;4.47;4.13;;;16.90;54.50;17.80;101827.00;;;;5067641;28;20208;-47
2024/01/13 03:33:31;;;;;;;5.00;4.60;;;16.90;54.60;17.80;101825.00;;;;5070767;28;20176;-47
2024/01/13 03:35:57;;;;;;;5.00;4.60;;;16.90;54.50;17.80;101826.00;;;;5069405;28;20204;-47
2024/01/13 03:38:25;;;;;;;5.03;4.63;;;17.00;54.50;17.80;101812.00;;;;5070559;28;20176;-47
2024/01/13 03:40:50;;;;;;;4.90;4.50;;;16.90;54.40;17.80;101816.00;;;;5072405;28;20176;-47
2024/01/13 03:43:16;;;;;;;4.87;4.47;;;17.00;54.50;17.80;101814.00;;;;5065837;28;20176;-47
2024/01/13 03:45:42;;;;;;;4.60;4.20;;;16.90;54.40;17.80;101819.00;;;;5069136;28;20728;-48
2024/01/13 03:48:07;;;;;;;4.70;4.30;;;16.90;55.00;17.80;101807.00;;;;5047761;28;20189;-46
2024/01/13 03:50:33;;;;;;;4.67;4.27;;;16.90;54.50;17.80;101738.00;;;;5069198;28;20207;-47
2024/01/13 03:52:59;;;;;;;4.73;4.33;;;16.90;54.40;17.80;101797.00;;;;5069466;28;20184;-47
2024/01/13 03:55:25;;;;;;;4.63;4.23;;;17.00;54.40;17.80;101787.00;;;;5069017;28;20195;-47
2024/01/13 03:57:50;;;;;;;5.07;4.67;;;17.00;54.40;17.80;101793.00;;;;5069573;28;20184;-46
2024/01/13 04:00:16;;;;;;;4.67;4.20;;;16.90;54.40;17.80;101797.00;;;;5068988;28;20668;-46
2024/01/13 04:02:42;;;;;;;4.33;4.03;;;17.00;54.30;17.80;101791.00;;;;5069836;28;20171;-47
2024/01/13 04:05:08;;;;;;;4.80;4.40;;;17.00;54.40;17.80;101790.00;;;;5069513;28;20730;-46
2024/01/13 04:07:33;;;;;;;4.80;4.40;;;16.90;54.40;17.80;101795.00;;;;5069205;28;20204;-48
2024/01/13 04:09:59;;;;;;;4.60;4.27;;;16.90;54.40;17.80;101788.00;;;;5069353;28;20177;-47
2024/01/13 04:12:25;;;;;;;4.47;4.07;;;17.00;54.40;17.80;101793.00;;;;5042178;28;20202;-47
2024/01/13 04:14:51;;;;;;;4.67;4.27;;;17.00;54.40;17.80;101790.00;;;;5069501;28;20228;-47
2024/01/13 04:17:17;;;;;;;4.30;3.90;;;16.90;54.40;17.80;101794.00;;;;5069238;28;20215;-46
2024/01/13 04:19:42;;;;;;;4.80;4.40;;;16.90;54.40;17.80;101780.00;;;;5069322;28;20196;-46
2024/01/13 04:22:08;;;;;;;4.80;4.40;;;17.00;54.40;17.80;101769.00;;;;5069168;28;20179;-48
2024/01/13 04:24:34;;;;;;;4.50;4.10;;;17.00;54.40;17.80;101783.00;;;;5069342;28;20318;-46
2024/01/13 04:26:59;;;;;;;4.67;4.17;;;17.00;54.40;17.80;101778.00;;;;5069311;28;20177;-47
2024/01/13 04:29:25;;;;;;;4.80;4.40;;;17.00;54.40;17.80;101773.00;;;;5048661;28;21957;-47
2024/01/13 04:31:51;;;;;;;4.50;4.10;;;17.00;54.40;17.60;101778.00;;;;5064547;28;20207;-47
2024/01/13 04:34:17;;;;;;;4.60;4.20;;;17.00;54.50;17.80;101771.00;;;;5068484;28;20204;-47
2024/01/13 04:36:42;;;;;;;4.63;4.23;;;16.90;54.40;17.80;101758.00;;;;5069065;28;20190;-48
2024/01/13 04:39:08;;;;;;;4.20;3.90;;;16.90;54.30;17.80;101770.00;;;;5068722;28;20565;-47
2024/01/13 04:41:34;;;;;;;4.50;4.10;;;16.90;54.30;17.80;101774.00;;;;5068381;28;20184;-48
2024/01/13 04:43:59;;;;;;;4.57;4.17;;;16.90;54.40;17.80;101772.00;;;;5065160;28;20200;-46
2024/01/13 04:46:25;;;;;;;4.47;4.17;;;17.00;54.30;17.80;101752.00;;;;5068113;28;20199;-47
2024/01/13 04:48:51;;;;;;;4.33;3.93;;;17.00;54.40;17.80;101748.00;;;;5046345;28;20225;-46
2024/01/13 04:51:17;;;;;;;4.60;4.20;;;17.00;54.30;17.80;101757.00;;;;5090474;28;20716;-47
2024/01/13 04:53:42;;;;;;;4.10;3.80;;;16.90;54.30;17.80;101755.00;;;;5068041;28;20233;-46
2024/01/13 04:56:08;;;;;;;4.20;3.90;;;16.90;54.20;17.80;101745.00;;;;5041060;28;20725;-47
2024/01/13 04:58:34;;;;;;;6.00;4.20;;;16.90;54.30;17.80;101755.00;;;;5054765;28;20211;-51
2024/01/13 05:00:59;;;;;;;4.53;4.13;;;17.00;54.40;17.80;101746.00;;;;5070903;28;20337;-46
2024/01/13 05:03:25;;;;;;;4.70;4.20;;;16.90;54.30;17.80;101737.00;;;;5068871;28;20177;-47
2024/01/13 05:05:51;;;;;;;4.07;3.77;;;16.90;54.90;17.80;101737.00;;;;5068366;28;20341;-47
2024/01/13 05:08:17;;;;;;;4.30;3.90;;;17.00;54.30;17.80;101731.00;;;;5037435;28;20196;-47
2024/01/13 05:10:42;;;;;;;4.83;4.10;;;17.00;54.30;17.80;101742.00;;;;5069281;28;20205;-47
2024/01/13 05:13:09;;;;;;;4.33;3.97;;;17.00;54.30;17.80;101744.00;;;;5068550;28;20615;-46
2024/01/13 05:15:34;;;;;;;4.40;4.00;;;17.00;54.20;17.80;101746.00;;;;5067550;28;20192;-46
2024/01/13 05:18:00;;;;;;;4.70;4.20;;;17.00;54.30;17.80;101739.00;;;;5065803;28;20182;-47
2024/01/13 05:20:26;;;;;;;4.57;4.17;;;17.00;54.20;17.80;101733.00;;;;5066681;28;20181;-47
2024/01/13 05:22:51;;;;;;;4.30;3.90;;;17.00;54.40;17.80;101738.00;;;;5046241;28;20571;-48
2024/01/13 05:25:17;;;;;;;6.27;4.20;;;17.00;54.50;17.80;101723.00;;;;5067817;28;20248;-46
2024/01/13 05:27:43;;;;;;;5.47;3.93;;;17.00;55.00;17.80;101733.00;;;;5067268;28;20180;-46
2024/01/13 05:30:09;;;;;;;5.33;3.87;;;17.00;55.60;17.80;101737.00;;;;5039644;28;20185;-46
2024/01/13 05:32:37;;;;;;;6.37;4.30;;;17.00;55.70;17.80;101739.00;;;;5067225;28;20215;-47
2024/01/13 05:35:03;;;;;;;5.17;4.10;;;17.00;56.40;17.80;101736.00;;;;5067443;28;20220;-47
2024/01/13 05:37:29;;;;;;;5.20;4.07;;;17.00;56.50;17.80;101733.00;;;;5067320;28;20704;-47
2024/01/13 05:39:55;;;;;;;4.53;4.03;;;17.00;56.70;17.90;101720.00;;;;5066915;28;20208;-47
2024/01/13 05:42:20;;;;;;;7.33;4.33;;;17.00;56.80;17.80;101717.00;;;;5067449;28;20241;-47
2024/01/13 05:44:46;;;;;;;5.20;4.03;;;17.10;56.90;17.90;101721.00;;;;5063801;28;20211;-47
2024/01/13 05:47:13;;;;;;;5.63;4.10;;;17.10;56.90;17.90;101722.00;;;;5031674;28;1040499;-47
2024/01/13 05:49:38;;;;;;;4.23;3.83;;;17.10;56.60;17.90;101720.00;;;;5072358;28;20711;-46
2024/01/13 05:52:04;;;;;;;4.70;4.13;;;17.20;56.50;17.90;101718.00;;;;5038902;28;20200;-47
2024/01/13 05:54:30;;;;;;;4.03;3.73;;;17.20;56.60;17.90;101722.00;;;;5066987;28;20208;-47
2024/01/13 05:56:56;;;;;;;4.83;4.00;;;17.20;56.50;17.90;101710.00;;;;5068068;28;20176;-47
2024/01/13 05:59:22;;;;;;;4.30;3.90;;;17.20;56.50;18.00;101712.00;;;;5067937;28;20189;-47
2024/01/13 06:01:47;;;;;;;4.37;3.87;;;17.20;56.50;18.00;101708.00;;;;5066264;28;20212;-46
2024/01/13 06:04:13;;;;;;;4.27;3.87;;;17.20;56.40;18.00;101707.00;;;;5068395;28;20228;-46
2024/01/13 06:06:39;;;;;;;4.47;3.77;;;17.30;56.30;18.00;101701.00;;;;5068806;28;20186;-47
2024/01/13 06:09:05;;;;;;;4.20;3.80;;;17.20;56.30;18.00;101705.00;;;;5067991;28;20182;-47
2024/01/13 06:11:30;;;;;;;4.10;3.80;;;17.30;56.30;18.00;101710.00;;;;5067571;28;20197;-47
2024/01/13 06:13:56;;;;;;;4.40;4.00;;;17.30;56.30;18.00;101721.00;;;;5058637;28;20183;-48
2024/01/13 06:16:22;;;;;;;4.77;3.77;;;17.30;56.20;18.10;101710.00;;;;5066884;28;20189;-47
2024/01/13 06:18:48;;;;;;;3.77;3.47;;;17.30;56.10;18.10;101708.00;;;;5067836;28;20178;-47
2024/01/13 06:21:13;;;;;;;3.90;3.60;;;17.30;56.10;18.10;101708.00;;;;5067109;28;20192;-47
2024/01/13 06:23:39;;;;;;;3.70;3.40;;;17.30;56.00;18.10;101709.00;;;;5067772;28;20180;-47
2024/01/13 06:26:05;;;;;;;4.00;3.70;;;17.30;56.00;18.10;101707.00;;;;5039048;28;20206;-48
2024/01/13 06:28:31;;;;;;;4.10;3.70;;;17.40;55.90;18.10;101713.00;;;;5067521;28;20250;-47
2024/01/13 06:30:56;;;;;;;4.00;3.63;;;17.40;55.90;18.20;101712.00;;;;5070483;28;20649;-47
2024/01/13 06:33:22;;;;;;;4.00;3.70;;;17.30;55.80;18.20;101709.00;;;;5071471;28;20176;-47
2024/01/13 06:35:49;;;;;;;3.90;3.60;;;17.40;55.80;18.20;101712.00;;;;5064149;28;20243;-47
2024/01/13 06:38:14;;;;;;;3.97;3.57;;;17.40;55.80;18.20;101706.00;;;;5069773;28;20311;-48
2024/01/13 06:40:40;;;;;;;3.60;3.30;;;17.40;55.80;18.20;101707.00;;;;5071854;28;20648;-49
2024/01/13 06:43:10;;;;;;;3.67;3.37;;;17.30;55.70;18.20;101706.00;;;;5070450;28;20189;-47
2024/01/13 06:45:36;;;;;;;3.63;3.33;;;17.40;55.90;18.20;101706.00;;;;5066096;28;20201;-47
2024/01/13 06:48:02;;;;;;;4.00;3.70;;;17.30;55.80;18.20;101699.00;;;;5072838;28;20201;-47
2024/01/13 06:50:28;;;;;;;3.40;3.10;;;17.40;55.80;18.20;101703.00;;;;5070444;28;20710;-47
2024/01/13 06:52:53;;;;;;;3.60;3.30;;;17.40;55.70;18.20;101696.00;;;;5073300;28;20181;-47
2024/01/13 06:55:23;;;;;;;3.57;3.27;;;17.40;55.80;18.20;101688.00;;;;5070331;28;20208;-48
2024/01/13 06:57:50;;;;;;;3.57;3.27;;;17.40;55.70;18.20;101699.00;;;;5068937;28;20183;-47
2024/01/13 07:00:16;;;;;;;3.50;3.20;;;17.40;55.60;18.20;101692.00;;;;5069750;28;20244;-48
2024/01/13 07:02:43;;;;;;;4.03;3.40;;;17.40;55.60;18.20;101671.00;;;;5071696;28;20181;-46
2024/01/13 07:05:10;;;;;;;3.43;3.13;;;17.40;55.60;18.20;101682.00;;;;5048253;28;20706;-47
2024/01/13 07:07:36;;;;;;;3.50;3.20;;;17.40;55.60;18.20;101677.00;;;;5073831;28;20177;-48
2024/01/13 07:10:04;;;;;;;3.60;3.30;;;17.40;55.50;18.20;101660.00;;;;5046136;28;20220;-47
2024/01/13 07:12:30;;;;;;;3.50;3.20;;;17.40;55.50;18.20;101663.00;;;;5070354;28;20696;-47
2024/01/13 07:14:56;;;;;;;3.70;3.40;;;17.50;55.60;18.20;101651.00;;;;5068930;28;20200;-47
2024/01/13 07:17:22;;;;;;;3.73;3.43;;;17.40;55.50;18.20;101653.00;;;;5046924;28;20181;-47
2024/01/13 07:19:47;;;;;;;3.43;3.13;;;17.50;55.60;18.20;101638.00;;;;5068900;28;20181;-47
2024/01/13 07:22:13;;;;;;;4.10;3.37;;;17.40;55.50;18.20;101614.00;;;;5068733;28;20177;-46
2024/01/13 07:24:39;;;;;;;3.27;3.07;;;17.40;55.50;18.20;101627.00;;;;5043690;28;20682;-47
2024/01/13 07:27:04;;;;;;;3.40;3.10;;;17.40;55.50;18.20;101639.00;;;;5069107;28;20192;-47
2024/01/13 07:29:30;;;;;;;3.67;3.37;;;17.50;55.60;18.20;101627.00;;;;5046456;28;20235;-46
2024/01/13 07:31:56;;;;;;;3.37;3.07;;;17.50;55.60;18.20;101633.00;;;;5071268;28;20204;-47
2024/01/13 07:34:22;;;;;;;3.60;3.30;;;17.50;55.60;18.20;101637.00;;;;5070751;28;20292;-47
2024/01/13 07:36:47;;;;;;;3.90;3.30;;;17.50;55.50;18.20;101629.00;;;;5070602;28;20181;-47
2024/01/13 07:39:13;;;;;;;3.43;3.13;;;17.40;55.50;18.20;101638.00;;;;5070299;28;20283;-47
2024/01/13 07:41:39;;;;;;;3.10;2.90;;;17.40;55.50;18.20;101623.00;;;;5069379;28;20555;-47
2024/01/13 07:44:06;;;;;;;3.50;3.20;;;17.40;55.60;18.20;101636.00;;;;5066617;28;20201;-47
2024/01/13 07:46:31;;;;;;;3.67;3.37;;;17.40;55.50;18.20;101644.00;;;;5051821;28;20190;-47
2024/01/13 07:48:57;;;;;;;3.30;3.00;;;17.40;55.50;18.20;101629.00;;;;5068399;28;20178;-47
2024/01/13 07:51:23;;;;;;;3.57;3.27;;;17.40;55.50;18.20;101637.00;;;;5070241;28;20202;-46
2024/01/13 07:53:48;;;;;;;3.10;2.90;;;17.40;55.40;18.20;101635.00;;;;5070048;28;20558;-47
2024/01/13 07:56:14;;;;;;;3.40;3.10;;;17.40;55.50;18.20;101620.00;;;;5070535;28;20189;-47
2024/01/13 07:58:40;;;;;;;3.23;2.93;;;17.40;55.50;18.20;101597.00;;;;5070106;28;20186;-47
2024/01/13 08:01:06;;;;;;;3.40;3.10;;;17.40;55.50;18.20;101598.00;;;;5070275;28;20188;-47
2024/01/13 08:03:31;;;;;;;2.97;2.77;;;17.40;55.40;18.20;101595.00;;;;5048029;28;20178;-47
2024/01/13 08:05:57;;;;;;;3.53;3.23;;;17.40;55.40;18.20;101571.00;;;;5069887;28;20234;-47
2024/01/13 08:08:23;;;;;;;3.23;3.03;;;17.50;55.50;18.20;101567.00;;;;5072134;28;20251;-47
2024/01/13 08:10:48;;;;;;;3.50;3.20;;;17.50;55.50;18.30;101559.00;;;;5072521;28;20209;-47
2024/01/13 08:13:14;;;;;;;3.10;2.90;;;17.40;55.30;18.20;101563.00;;;;5048892;28;20547;-47
2024/01/13 08:15:40;;;;;;;3.00;2.80;;;17.50;55.40;18.30;101576.00;;;;5069932;28;20189;-47
2024/01/13 08:18:06;;;;;;;3.00;2.80;;;17.40;55.40;18.20;101575.00;;;;5069773;28;20308;-47
2024/01/13 08:20:32;;;;;;;3.07;2.87;;;17.50;55.40;18.20;101561.00;;;;5042840;28;20176;-47
2024/01/13 08:22:57;;;;;;;3.10;2.90;;;17.50;55.40;18.30;101549.00;;;;5069626;28;20178;-47
2024/01/13 08:25:23;;;;;;;2.83;2.63;;;17.50;55.40;18.30;101560.00;;;;5069492;28;20573;-48
2024/01/13 08:27:49;;;;;;;3.30;3.00;;;17.50;55.40;18.30;101552.00;;;;5069748;28;20189;-48
2024/01/13 08:30:16;;;;;;;3.20;2.97;;;17.50;55.40;18.30;101540.00;;;;5049561;28;20180;-48
2024/01/13 08:32:41;;;;;;;2.90;2.70;;;17.50;55.40;18.30;101549.00;;;;5069634;28;20225;-47
2024/01/13 08:35:07;;;;;;;3.20;3.00;;;17.40;55.30;18.20;101557.00;;;;5069845;28;20284;-47
2024/01/13 08:37:33;;;;;;;3.27;2.97;;;17.40;55.30;18.20;101548.00;;;;5047658;28;20177;-48
2024/01/13 08:39:59;;;;;;;3.30;3.00;;;17.40;55.30;18.20;101545.00;;;;5071732;28;20177;-48
2024/01/13 08:42:24;;;;;;;3.13;2.87;;;17.40;55.40;18.20;101552.00;;;;5070091;28;20787;-48
2024/01/13 08:44:50;;;;;;;3.03;2.80;;;17.40;55.30;18.20;101535.00;;;;5065888;28;20592;-48
2024/01/13 08:47:16;;;;;;;2.70;2.50;;;17.50;55.40;18.30;101545.00;;;;5069502;28;20197;-48
2024/01/13 08:49:41;;;;;;;3.00;2.80;;;17.40;55.90;18.20;101539.00;;;;5051820;28;20261;-48
2024/01/13 08:52:09;;;;;;;2.93;2.73;;;17.40;55.30;18.20;101538.00;;;;5070806;28;20283;-47
2024/01/13 08:54:36;;;;;;;3.23;2.97;;;17.40;55.30;18.20;101452.00;;;;5066450;28;20207;-48
2024/01/13 08:57:03;;;;;;;3.10;2.90;;;17.40;55.30;18.20;101523.00;;;;5069439;28;20185;-47
2024/01/13 08:59:29;;;;;;;2.93;2.70;;;17.40;55.40;18.20;101529.00;;;;5069101;28;20197;-47
2024/01/13 09:01:55;;;;;;;2.80;2.60;;;17.40;55.40;18.20;101546.00;;;;5069017;28;20185;-46
2024/01/13 09:04:20;;;;;;;3.00;2.80;;;17.40;55.30;18.20;101532.00;;;;5047026;28;20210;-47
2024/01/13 09:06:46;;;;;;;3.10;2.90;;;17.50;55.30;18.20;101526.00;;;;5068969;28;20258;-47
2024/01/13 09:09:12;;;;;;;3.10;2.90;;;17.50;55.30;18.20;101526.00;;;;5068844;28;20187;-47
2024/01/13 09:11:38;;;;;;;3.10;2.90;;;17.50;55.20;18.20;101539.00;;;;5069137;28;20661;-47
2024/01/13 09:14:04;;;;;;;3.00;2.80;;;17.50;55.20;18.20;101531.00;;;;5068638;28;20224;-47
2024/01/13 09:16:29;;;;;;;2.87;2.67;;;17.50;55.30;18.20;101539.00;;;;5068705;28;20224;-46
2024/01/13 09:18:56;;;;;;;3.13;2.93;;;17.40;55.30;18.20;101548.00;;;;5034228;28;20632;-47
2024/01/13 09:21:22;;;;;;;3.20;3.00;;;17.40;55.30;18.20;101530.00;;;;5068595;28;20223;-47
2024/01/13 09:23:48;;;;;;;3.10;2.90;;;17.40;55.20;18.20;101525.00;;;;5072752;28;20649;-47
2024/01/13 09:26:13;;;;;;;3.03;2.83;;;17.50;55.40;18.20;101520.00;;;;5068936;28;20253;-47
2024/01/13 09:28:39;;;;;;;2.90;2.70;;;17.40;55.30;18.30;101528.00;;;;5068901;28;20188;-47
2024/01/13 09:31:06;;;;;;;2.80;2.60;;;17.40;55.20;18.30;101525.00;;;;5045956;28;20275;-47
2024/01/13 09:33:31;;;;;;;2.90;2.70;;;17.40;55.20;18.20;101524.00;;;;5068743;28;20575;-47
2024/01/13 09:35:57;;;;;;;3.00;2.80;;;17.40;55.30;18.20;101547.00;;;;5069156;28;20200;-47
2024/01/13 09:38:23;;;;;;;2.80;2.60;;;17.40;55.30;18.20;101546.00;;;;5068941;28;20180;-47
2024/01/13 09:40:50;;;;;;;2.90;2.70;;;17.40;55.30;18.20;101542.00;;;;5043008;28;20618;-48
2024/01/13 09:43:44;;;;;;;3.00;2.80;;;17.40;55.20;18.20;101546.00;;;;5031786;28;20196;-47
2024/01/13 09:46:09;;;;;;;2.90;2.70;;;17.40;55.20;18.20;101534.00;;;;5046702;28;20197;-48
2024/01/13 09:48:35;;;;;;;2.60;2.40;;;17.40;55.20;18.20;101529.00;;;;5073820;28;20192;-47
2024/01/13 09:51:01;;;;;;;3.10;2.80;;;17.40;55.30;18.20;101519.00;;;;5064751;28;20226;-47
2024/01/13 09:53:28;;;;;;;3.70;2.90;;;17.40;55.30;18.20;101522.00;;;;5047011;28;20180;-47
2024/01/13 09:56:09;;;;;;;3.97;2.70;;;17.40;55.40;18.20;101534.00;;;;5068351;28;20194;-48
2024/01/13 09:58:35;;;;;;;2.97;2.77;;;17.40;55.50;18.20;101516.00;;;;5038560;28;20264;-47
2024/01/13 10:01:00;;;;;;;3.90;2.97;;;17.40;55.70;18.20;101519.00;;;;5047196;28;20267;-44
2024/01/13 10:03:26;;;;;;;2.70;2.50;;;17.40;55.70;18.20;101521.00;;;;5052680;28;20186;-44
2024/01/13 10:05:55;;;;;;;3.10;2.60;;;17.40;55.70;18.20;101524.00;;;;5071804;28;20193;-46
2024/01/13 10:08:32;;;;;;;2.90;2.60;;;17.40;55.70;18.20;101520.00;;;;5043950;28;20184;-45
2024/01/13 10:11:02;;;;;;;3.23;2.73;;;17.40;55.60;18.20;101528.00;;;;5053897;28;20193;-45
2024/01/13 10:13:28;;;;;;;2.73;2.53;;;17.50;55.70;18.20;101534.00;;;;5071478;28;20201;-46
2024/01/13 10:15:54;;;;;;;3.13;2.80;;;17.50;55.60;18.20;101524.00;;;;5044598;28;20193;-44
2024/01/13 10:18:20;;;;;;;3.90;2.53;;;17.50;55.60;18.30;101541.00;;;;5037840;28;20817;-46
2024/01/13 10:20:46;;;;;;;3.30;2.97;;;17.50;55.50;18.30;101534.00;;;;5052412;28;20557;-47
2024/01/13 10:23:11;;;;;;;3.03;2.73;;;17.50;55.50;18.30;101523.00;;;;5075792;28;20178;-46
2024/01/13 10:25:37;;;;;;;6.40;2.83;;;17.50;55.80;18.20;101520.00;;;;5071626;28;20760;-45
2024/01/13 10:28:04;;;;;;;5.20;2.60;;;17.50;55.80;18.20;101522.00;;;;5075321;28;20196;-45
2024/01/13 10:30:30;;;;;;;4.17;2.60;;;17.40;55.80;18.20;101522.00;;;;5052505;28;20703;-45
2024/01/13 10:32:59;;;;;;;6.53;2.70;;;17.50;55.90;18.30;101512.00;;;;5065705;28;20257;-44
2024/01/13 10:35:27;;;;;;;3.87;2.50;;;17.50;56.00;18.30;101513.00;;;;5045439;28;20202;-44
2024/01/13 10:37:57;;;;;;;4.10;2.50;;;17.50;56.00;18.30;101498.00;;;;5067652;28;20272;-44
2024/01/13 10:40:23;;;;;;;5.93;2.60;;;17.60;55.90;18.40;101494.00;;;;5044739;28;20188;-45
2024/01/13 10:42:49;;;;;;;2.83;2.50;;;17.70;55.90;18.40;101492.00;;;;5076295;28;20192;-45